Portada
METAR-TAF:

METAR-TAF

Aeroports :

Cairns, Austràlia

latitud: 16-53S, longitud: 145-45E, altitud: 3 m

Observació

L'informe es va fer fa 32 minuts, a les 08:00 UTC
Vent 8 kt del Est/Sud-Est
Temperatura 27°C
Humitat 58%
Pressió 1011 hPa
Visibilitat 10 km o més
Escasses núvols a una alçada de 3000 ft

METAR: YBCS 170800Z 11008KT 9999 FEW030 27/18 Q1011 NOSIG

Hora: 18:32 (08:32 UTC)

Pronòstic

L'informe es va fer fa 3 hores i 22 minuts, a les 05:10 UTC
Pronòstic vàlid del 17 a les 06 UTC al 18 a les 06 UTC
Vent 14 kt del Est
Visibilitat 10 km o més
Escasses núvols a una alçada de 4500 ft
A partir de les 17 a les 0800 UTC
Vent 8 kt del Sud-Est
Visibilitat 10 km o més
Escasses núvols a una alçada de 2500 ft
A partir de les 18 a les 0100 UTC
Vent 14 kt del Est
Visibilitat 10 km o més
Escasses núvols a una alçada de 4500 ft

TAF: YBCS 170510Z 1706/1806 09014KT 9999 FEW045 FM170800 13008KT 9999 FEW025 FM180100 08014KT 9999 FEW045

Observacions i pronòstics meteorològics de més de 4000 aeroports (METAR i TAF).

Les estacions disponibles són els punts grocs i vermells al mapa.

Posi el ratolí al punt desitjat per veure el nom de l'estació.

Feu clic per veure les observacions i els pronòstics meteorològics.

Per canviar el mapa: feu clic els botons verds amb una creu de color negre per apropar; al botó verd amb un guió per allunyar la imatge; o en les fletxes verdes per a mapes adjacents.


METAR-TAF: